KCNM/CNM METAR and TAF weather

Enter ICAO airport designator
Station Type Date Time Source
KCNM METAR 2019/11/18 13:53 UTC NOAA

KCNM 181353Z AUTO 00000KT 10SM CLR 00/M02 A3000 RMK AO2 SLP152 T00001017


Station Type Date Time Source
KCNM Decoded METAR 2019/11/18 13:53 UTC NOAA

CARLSBAD CAVERN CITY, NM, United States (KCNM) 32-20N 104-16W 985M
Nov 18, 2019 - 08:53 AM EST / 2019.11.18 1353 UTC
Wind: Calm:0
Visibility: 10 mile(s):0
Sky conditions: clear
Temperature: 32.0 F (0.0 C)
Dew Point: 28.9 F (-1.7 C)
Relative Humidity: 88%
Pressure (altimeter): 30 in. Hg (1015 hPa)
ob: KCNM 181353Z AUTO 00000KT 10SM CLR 00/M02 A3000 RMK AO2 SLP152 T00001017
cycle: 14

Station Type Date Time Source
KCNM TAF 2019/11/18 12:24 UTC NOAA

TAF KCNM 181121Z 1812/1912 30008KT P6SM FEW250

Example: see airport list